Time;durP1;ratioP1;P1;durP2;ratioP2;P2;SDS_P1;SDS_P2;PMS_P1;PMS_P2;Temp;Humidity;BMP_temperature;BMP_pressure;BME280_temperature;BME280_humidity;BME280_pressure;Samples;Min_cycle;Max_cycle;Signal;HPM_P1;HPM_P2
2023/10/03 00:01:22;;;;;;;37.90;17.05;;;;;;;19.14;100.00;100896.25;5068277;28;20486;-58
2023/10/03 00:03:49;;;;;;;39.03;17.52;;;;;;;19.03;100.00;100895.13;5067805;28;20082;-58
2023/10/03 00:06:15;;;;;;;41.70;18.40;;;;;;;18.97;100.00;100894.72;5068135;28;20020;-58
2023/10/03 00:08:44;;;;;;;40.88;18.20;;;;;;;18.93;100.00;100886.91;5067636;28;20397;-58
2023/10/03 00:11:18;;;;;;;40.45;17.77;;;;;;;18.94;100.00;100891.28;5067634;28;20033;-57
2023/10/03 00:13:43;;;;;;;41.95;18.70;;;;;;;18.92;100.00;100882.53;5066499;28;20086;-59
2023/10/03 00:16:09;;;;;;;38.72;17.85;;;;;;;18.92;100.00;100890.56;5065834;28;20028;-58
2023/10/03 00:18:34;;;;;;;41.75;17.85;;;;;;;18.89;100.00;100888.09;5067550;28;20050;-59
2023/10/03 00:21:00;;;;;;;42.65;18.65;;;;;;;18.90;100.00;100880.94;5067864;28;20479;-59
2023/10/03 00:23:26;;;;;;;42.85;18.73;;;;;;;18.83;100.00;100869.81;5067260;28;20021;-58
2023/10/03 00:25:54;;;;;;;41.28;18.40;;;;;;;18.86;100.00;100874.09;5067567;28;20028;-59
2023/10/03 00:28:19;;;;;;;43.90;18.50;;;;;;;18.87;100.00;100862.47;5067393;28;20463;-60
2023/10/03 00:30:45;;;;;;;40.22;17.20;;;;;;;18.85;100.00;100859.91;5060083;28;20044;-59
2023/10/03 00:33:12;;;;;;;41.72;18.08;;;;;;;18.88;100.00;100867.69;5048214;28;20063;-57
2023/10/03 00:35:40;;;;;;;42.28;19.45;;;;;;;18.89;100.00;100858.72;5047318;28;20029;-56
2023/10/03 00:38:09;;;;;;;36.65;16.70;;;;;;;18.84;100.00;100852.84;5048368;28;20108;-58
2023/10/03 00:40:35;;;;;;;39.10;17.48;;;;;;;18.91;100.00;100859.44;5065838;28;20062;-58
2023/10/03 00:43:01;;;;;;;46.00;18.33;;;;;;;18.93;100.00;100848.66;5050939;28;20056;-57
2023/10/03 00:45:29;;;;;;;44.17;19.48;;;;;;;18.97;100.00;100849.31;5070931;28;20471;-58
2023/10/03 00:47:56;;;;;;;39.55;18.00;;;;;;;19.01;100.00;100838.31;5071712;28;20039;-57
2023/10/03 00:50:25;;;;;;;39.25;17.77;;;;;;;19.01;100.00;100829.44;5071896;28;20035;-58
2023/10/03 00:52:57;;;;;;;39.67;17.95;;;;;;;19.02;100.00;100829.34;5071380;28;20026;-57
2023/10/03 00:55:29;;;;;;;43.60;18.75;;;;;;;18.98;100.00;100821.66;5070927;28;20032;-57
2023/10/03 00:58:17;;;;;;;43.08;19.20;;;;;;;18.99;100.00;100820.72;5069866;28;20077;-58
2023/10/03 01:00:49;;;;;;;41.65;17.77;;;;;;;19.02;100.00;100815.16;5070855;28;20028;-57
2023/10/03 01:03:37;;;;;;;41.58;18.38;;;;;;;18.99;100.00;100802.84;5069834;28;20058;-58
2023/10/03 01:06:05;;;;;;;47.78;18.95;;;;;;;18.96;100.00;100799.56;5108748;22;20632;-60
2023/10/03 01:08:32;;;;;;;40.67;18.30;;;;;;;18.96;100.00;100791.56;5030212;28;20064;-59
2023/10/03 01:11:00;;;;;;;40.78;17.60;;;;;;;18.93;100.00;100782.78;5051984;28;20116;-62
2023/10/03 01:13:26;;;;;;;46.00;19.37;;;;;;;18.90;100.00;100792.84;5051867;28;20428;-60
2023/10/03 01:15:52;;;;;;;42.20;18.27;;;;;;;18.93;100.00;100785.47;5050336;28;20417;-60
2023/10/03 01:18:20;;;;;;;43.03;18.77;;;;;;;18.97;100.00;100766.56;5051162;28;20482;-59
2023/10/03 01:20:51;;;;;;;42.95;19.13;;;;;;;18.94;100.00;100762.31;5033160;28;20025;-59
2023/10/03 01:23:17;;;;;;;40.72;17.90;;;;;;;18.92;100.00;100761.53;5050675;28;20470;-58
2023/10/03 01:25:43;;;;;;;41.85;17.60;;;;;;;18.93;100.00;100756.09;5051295;28;20033;-59
2023/10/03 01:28:12;;;;;;;43.58;18.67;;;;;;;18.90;100.00;100769.66;5032505;28;20083;-59
2023/10/03 01:30:40;;;;;;;41.85;16.90;;;;;;;18.91;100.00;100778.53;5049400;28;20033;-58
2023/10/03 01:33:07;;;;;;;38.15;16.80;;;;;;;19.01;100.00;100768.03;5050549;28;20475;-59
2023/10/03 01:35:32;;;;;;;42.20;18.00;;;;;;;19.12;100.00;100760.16;5049852;28;20017;-59
2023/10/03 01:37:58;;;;;;;38.78;17.08;;;;;;;19.27;100.00;100758.19;5050349;28;20031;-60
2023/10/03 01:40:24;;;;;;;37.30;15.63;;;;;;;19.39;100.00;100774.31;5050272;28;20028;-60
2023/10/03 01:42:49;;;;;;;38.25;17.23;;;;;;;19.44;100.00;100774.81;5049315;28;20020;-59
2023/10/03 01:45:22;;;;;;;41.03;16.75;;;;;;;19.55;100.00;100758.88;5049855;28;20065;-59
2023/10/03 01:47:50;;;;;;;38.97;16.85;;;;;;;19.63;100.00;100762.78;5049325;28;20078;-58
2023/10/03 01:50:19;;;;;;;37.83;15.80;;;;;;;19.67;100.00;100757.09;5049962;28;20021;-60
2023/10/03 01:52:49;;;;;;;36.90;16.10;;;;;;;19.79;100.00;100766.03;5050040;28;20079;-62
2023/10/03 01:55:17;;;;;;;36.25;16.63;;;;;;;19.93;100.00;100762.31;5049403;28;20376;-61
2023/10/03 01:57:43;;;;;;;37.72;17.05;;;;;;;20.07;100.00;100755.09;5051117;28;20112;-61
2023/10/03 02:00:26;;;;;;;35.30;16.95;;;;;;;20.08;100.00;100754.97;5048808;28;20148;-59
2023/10/03 02:02:53;;;;;;;33.85;15.60;;;;;;;20.14;100.00;100740.28;5050573;28;20099;-59
2023/10/03 02:05:23;;;;;;;38.38;15.50;;;;;;;20.23;100.00;100732.53;5049718;28;20025;-60
2023/10/03 02:07:50;;;;;;;30.83;14.45;;;;;;;20.28;100.00;100739.22;5049296;28;20048;-58
2023/10/03 02:10:17;;;;;;;34.65;14.95;;;;;;;20.35;100.00;100720.91;5030472;28;20033;-60
2023/10/03 02:12:48;;;;;;;30.80;14.20;;;;;;;20.62;100.00;100721.53;5030055;28;20031;-59
2023/10/03 02:15:16;;;;;;;30.42;13.55;;;;;;;20.72;100.00;100714.47;5029289;28;20367;-60
2023/10/03 02:17:41;;;;;;;28.75;14.32;;;;;;;20.76;100.00;100725.78;5050999;28;20033;-58
2023/10/03 02:20:15;;;;;;;36.15;14.35;;;;;;;20.82;100.00;100711.91;5048637;28;20494;-58
2023/10/03 02:22:41;;;;;;;33.80;14.40;;;;;;;20.87;100.00;100714.22;5050217;28;20049;-59
2023/10/03 02:25:09;;;;;;;38.42;14.75;;;;;;;20.90;100.00;100714.00;5049054;28;20049;-60
2023/10/03 02:27:34;;;;;;;35.78;13.88;;;;;;;20.93;100.00;100713.75;5049449;28;20025;-59
2023/10/03 02:30:05;;;;;;;29.23;13.40;;;;;;;20.90;100.00;100704.16;5049169;28;20403;-59
2023/10/03 02:32:30;;;;;;;31.48;13.30;;;;;;;20.89;100.00;100698.88;5050431;28;20493;-60
2023/10/03 02:34:56;;;;;;;29.20;12.90;;;;;;;20.90;100.00;100704.16;5032258;28;20017;-60
2023/10/03 02:37:21;;;;;;;26.60;13.48;;;;;;;20.95;100.00;100701.94;5049996;28;20025;-59
2023/10/03 02:39:47;;;;;;;28.00;13.52;;;;;;;20.99;100.00;100712.41;5049079;28;20021;-60
2023/10/03 02:42:12;;;;;;;26.60;12.05;;;;;;;20.91;100.00;100711.22;5031817;28;20108;-58
2023/10/03 02:44:37;;;;;;;28.08;12.00;;;;;;;20.81;100.00;100703.03;5048512;28;20059;-58
2023/10/03 02:47:04;;;;;;;23.75;11.23;;;;;;;20.85;100.00;100700.94;5048896;28;20029;-59
2023/10/03 02:49:30;;;;;;;26.13;10.05;;;;;;;20.88;100.00;100721.25;5048646;28;20036;-60
2023/10/03 02:51:55;;;;;;;31.88;11.30;;;;;;;20.84;100.00;100726.88;5049203;28;20021;-61
2023/10/03 02:54:22;;;;;;;21.77;10.40;;;;;;;20.92;100.00;100728.97;5049249;28;20059;-58
2023/10/03 02:56:48;;;;;;;26.85;10.15;;;;;;;20.92;100.00;100723.63;5049792;28;20048;-59
2023/10/03 02:59:13;;;;;;;20.92;9.13;;;;;;;20.85;100.00;100743.78;5049579;28;20123;-59
2023/10/03 03:01:38;;;;;;;21.17;7.90;;;;;;;20.82;100.00;100752.06;5047391;28;20685;-58
2023/10/03 03:04:04;;;;;;;22.05;8.07;;;;;;;20.75;100.00;100735.66;5047485;28;20021;-59
2023/10/03 03:06:31;;;;;;;23.23;8.05;;;;;;;20.72;100.00;100738.56;5048778;28;20120;-61
2023/10/03 03:08:56;;;;;;;19.45;7.43;;;;;;;20.69;100.00;100726.28;5048611;28;20062;-58
2023/10/03 03:11:21;;;;;;;22.70;6.97;;;;;;;20.65;100.00;100740.84;5048914;28;20055;-60
2023/10/03 03:13:47;;;;;;;19.48;6.97;;;;;;;20.62;100.00;100730.38;5048499;28;20028;-60
2023/10/03 03:16:14;;;;;;;17.88;6.47;;;;;;;20.56;100.00;100750.47;5047795;28;20032;-59
2023/10/03 03:18:40;;;;;;;28.80;6.70;;;;;;;20.45;100.00;100731.72;5049282;28;20041;-59
2023/10/03 03:21:13;;;;;;;24.35;6.95;;;;;;;20.31;100.00;100770.25;5030557;28;20079;-58
2023/10/03 03:23:42;;;;;;;24.77;6.82;;;;;;;20.22;100.00;100744.22;5048668;28;20017;-60
2023/10/03 03:26:18;;;;;;;23.23;6.65;;;;;;;20.10;100.00;100746.00;5047755;28;20071;-58
2023/10/03 03:28:52;;;;;;;24.95;7.63;;;;;;;20.03;100.00;100749.16;5046755;28;20021;-59
2023/10/03 03:31:25;;;;;;;19.95;6.63;;;;;;;19.97;100.00;100748.72;5048097;28;20094;-58
2023/10/03 03:33:53;;;;;;;23.15;7.40;;;;;;;19.97;100.00;100754.91;5047509;28;20042;-59
2023/10/03 03:36:20;;;;;;;22.08;7.05;;;;;;;19.87;100.00;100752.06;5048702;28;20104;-59
2023/10/03 03:38:46;;;;;;;24.48;6.75;;;;;;;19.82;100.00;100772.97;5047715;28;20530;-59
2023/10/03 03:41:12;;;;;;;22.92;6.85;;;;;;;19.68;100.00;100772.16;5030976;28;20025;-60
2023/10/03 03:43:38;;;;;;;23.90;6.28;;;;;;;19.51;100.00;100759.19;5048349;28;20364;-59
2023/10/03 03:46:03;;;;;;;28.40;6.63;;;;;;;19.63;100.00;100768.97;5030195;28;20033;-60
2023/10/03 03:48:29;;;;;;;19.23;6.95;;;;;;;19.64;100.00;100765.34;5048733;28;20048;-59
2023/10/03 03:50:54;;;;;;;26.80;7.50;;;;;;;19.56;100.00;100762.38;5048323;28;20095;-60
2023/10/03 03:53:21;;;;;;;29.48;6.53;;;;;;;19.64;100.00;100760.00;5048913;28;20049;-59
2023/10/03 03:55:47;;;;;;;23.45;6.07;;;;;;;19.46;100.00;100767.53;5048421;28;20028;-57
2023/10/03 03:58:16;;;;;;;28.40;6.40;;;;;;;19.53;100.00;100758.09;5048953;28;20021;-57
2023/10/03 04:00:47;;;;;;;21.90;6.68;;;;;;;19.52;100.00;100752.88;5047859;28;20021;-60
2023/10/03 04:03:14;;;;;;;31.95;7.50;;;;;;;19.49;100.00;100747.75;5031599;28;20463;-58
2023/10/03 04:05:40;;;;;;;26.20;6.88;;;;;;;19.51;100.00;100769.88;5048316;28;20534;-57
2023/10/03 04:08:06;;;;;;;24.05;6.68;;;;;;;19.34;100.00;100779.97;5029800;28;20029;-56
2023/10/03 04:10:36;;;;;;;20.88;6.00;;;;;;;19.42;100.00;100774.91;5031119;28;20025;-60
2023/10/03 04:13:07;;;;;;;22.08;7.00;;;;;;;19.46;100.00;100772.88;5047913;28;20025;-58
2023/10/03 04:15:32;;;;;;;22.50;6.63;;;;;;;19.39;100.00;100780.47;5046852;28;20055;-60
2023/10/03 04:17:58;;;;;;;23.02;6.07;;;;;;;19.40;100.00;100773.34;5048017;28;20028;-58
2023/10/03 04:20:30;;;;;;;26.73;6.45;;;;;;;19.36;100.00;100766.50;5047494;28;20090;-62
2023/10/03 04:22:57;;;;;;;14.07;5.82;;;;;;;19.42;100.00;100772.25;5047652;28;20052;-59
2023/10/03 04:25:22;;;;;;;18.55;6.32;;;;;;;19.37;100.00;100769.06;5030010;28;20029;-57
2023/10/03 04:27:53;;;;;;;17.45;5.88;;;;;;;19.30;100.00;100759.81;5047555;28;20100;-63
2023/10/03 04:30:23;;;;;;;19.85;6.28;;;;;;;19.27;100.00;100778.72;5048234;28;20057;-61
2023/10/03 04:32:48;;;;;;;22.67;6.38;;;;;;;19.29;100.00;100787.47;5048645;28;20112;-62
2023/10/03 04:35:15;;;;;;;16.40;6.15;;;;;;;19.27;100.00;100778.72;5049662;28;20464;-59
2023/10/03 04:37:43;;;;;;;21.30;6.45;;;;;;;19.29;100.00;100771.44;5047664;28;20082;-60
2023/10/03 04:40:15;;;;;;;27.13;6.50;;;;;;;19.24;100.00;100778.94;5029972;28;20086;-61
2023/10/03 04:42:41;;;;;;;15.85;5.53;;;;;;;19.29;100.00;100774.09;5047944;28;20036;-56
2023/10/03 04:45:10;;;;;;;18.55;5.43;;;;;;;19.23;100.00;100777.25;5046785;28;20025;-62
2023/10/03 04:47:41;;;;;;;14.13;4.88;;;;;;;19.27;100.00;100784.06;5047815;28;20033;-57
2023/10/03 04:50:10;;;;;;;10.40;4.53;;;;;;;19.32;100.00;100776.56;5047494;28;20025;-58
2023/10/03 04:52:36;;;;;;;12.50;4.38;;;;;;;19.38;100.00;100775.28;5048265;28;20368;-58
2023/10/03 04:55:02;;;;;;;17.02;4.50;;;;;;;19.27;100.00;100789.41;5046947;28;20021;-58
2023/10/03 04:57:28;;;;;;;9.77;3.75;;;;;;;19.28;100.00;100783.94;5047603;28;20033;-58
2023/10/03 04:59:57;;;;;;;10.10;4.32;;;;;;;19.32;100.00;100789.91;5046090;28;20029;-60
2023/10/03 05:02:23;;;;;;;18.13;4.20;;;;;;;19.32;100.00;100803.25;5046647;28;20472;-58
2023/10/03 05:04:48;;;;;;;14.60;4.72;;;;;;;19.28;100.00;100808.00;5046064;28;20039;-59
2023/10/03 05:07:13;;;;;;;14.90;3.80;;;;;;;19.31;100.00;100801.56;5047209;28;20351;-60
2023/10/03 05:09:39;;;;;;;12.52;4.57;;;;;;;19.30;100.00;100799.88;5046813;28;20103;-59
2023/10/03 05:12:04;;;;;;;12.18;4.00;;;;;;;19.21;100.00;100808.53;5027694;28;20044;-59
2023/10/03 05:14:30;;;;;;;13.40;4.10;;;;;;;19.25;100.00;100816.22;5046772;28;20032;-61
2023/10/03 05:16:58;;;;;;;14.20;4.13;;;;;;;19.18;100.00;100807.78;5045419;28;20112;-61
2023/10/03 05:19:24;;;;;;;16.17;4.40;;;;;;;19.18;100.00;100794.41;5046002;28;20035;-60
2023/10/03 05:21:49;;;;;;;14.15;4.25;;;;;;;19.25;100.00;100810.00;5046399;28;20675;-58
2023/10/03 05:24:16;;;;;;;10.32;4.18;;;;;;;19.25;100.00;100791.31;5041207;28;21781;-56
2023/10/03 05:26:41;;;;;;;17.90;4.05;;;;;;;19.32;100.00;100795.25;5053957;28;20024;-61
2023/10/03 05:29:07;;;;;;;19.38;4.60;;;;;;;19.25;100.00;100802.00;5049511;28;20021;-58
2023/10/03 05:31:34;;;;;;;14.38;4.13;;;;;;;19.26;100.00;100795.72;5050175;28;20017;-61
2023/10/03 05:34:00;;;;;;;19.63;4.15;;;;;;;19.24;100.00;100795.81;5049774;28;20055;-58
2023/10/03 05:36:25;;;;;;;17.65;4.45;;;;;;;19.22;100.00;100797.75;5050167;28;20025;-59
2023/10/03 05:38:51;;;;;;;17.73;4.20;;;;;;;19.27;100.00;100818.78;5049294;28;20413;-63
2023/10/03 05:41:23;;;;;;;19.10;4.13;;;;;;;19.26;100.00;100817.09;5049510;28;20036;-60
2023/10/03 05:43:49;;;;;;;11.25;4.15;;;;;;;19.22;100.00;100829.78;5049088;28;20032;-59
2023/10/03 05:46:14;;;;;;;19.10;4.63;;;;;;;19.15;100.00;100848.06;5049433;28;20049;-58
2023/10/03 05:48:40;;;;;;;16.17;4.85;;;;;;;19.11;100.00;100838.56;5038787;28;20039;-59
2023/10/03 05:51:05;;;;;;;16.92;4.15;;;;;;;19.03;100.00;100848.91;5052575;28;20491;-60
2023/10/03 05:53:31;;;;;;;16.33;3.33;;;;;;;19.03;100.00;100846.22;5050669;28;20056;-58
2023/10/03 05:55:57;;;;;;;13.35;3.78;;;;;;;19.08;100.00;100848.63;5049546;28;20021;-60
2023/10/03 05:58:23;;;;;;;11.80;3.67;;;;;;;19.07;100.00;100847.72;5051764;28;20029;-60
2023/10/03 06:00:49;;;;;;;12.60;3.60;;;;;;;19.08;100.00;100846.78;5047955;28;20525;-58
2023/10/03 06:03:15;;;;;;;12.80;2.88;;;;;;;19.01;100.00;100845.47;5048687;28;20459;-58
2023/10/03 06:05:41;;;;;;;8.45;3.13;;;;;;;18.97;100.00;100841.31;5048776;28;20040;-60
2023/10/03 06:08:07;;;;;;;10.02;2.67;;;;;;;18.86;100.00;100850.94;5047018;28;20112;-59
2023/10/03 06:10:32;;;;;;;9.98;3.03;;;;;;;18.89;100.00;100855.19;5031126;28;20384;-57
2023/10/03 06:12:58;;;;;;;9.40;2.80;;;;;;;18.92;100.00;100871.88;5047074;28;20032;-60
2023/10/03 06:15:24;;;;;;;6.47;2.08;;;;;;;18.96;100.00;100860.97;5029432;28;20144;-58
2023/10/03 06:17:52;;;;;;;10.10;2.13;;;;;;;18.80;100.00;100867.34;5047528;28;20025;-59
2023/10/03 06:20:17;;;;;;;8.25;2.25;;;;;;;18.82;100.00;100876.13;5047700;28;20166;-57
2023/10/03 06:22:43;;;;;;;8.35;2.00;;;;;;;18.87;100.00;100895.34;5048163;28;20099;-59
2023/10/03 06:25:09;;;;;;;8.30;2.30;;;;;;;18.89;100.00;100900.56;5047617;28;20184;-58
2023/10/03 06:27:37;;;;;;;7.78;2.47;;;;;;;18.85;100.00;100913.28;5048301;28;20028;-58
2023/10/03 06:30:03;;;;;;;6.97;2.58;;;;;;;18.79;100.00;100924.38;5046493;28;20040;-57
2023/10/03 06:32:28;;;;;;;8.52;2.20;;;;;;;18.77;100.00;100918.28;5048543;28;20495;-57
2023/10/03 06:34:54;;;;;;;9.65;2.60;;;;;;;18.76;100.00;100933.47;5047002;28;20100;-58
2023/10/03 06:37:19;;;;;;;6.85;2.00;;;;;;;18.78;100.00;100923.50;5048090;28;20381;-58
2023/10/03 06:39:45;;;;;;;8.05;2.60;;;;;;;18.82;100.00;100937.53;5047461;28;20033;-58
2023/10/03 06:42:11;;;;;;;11.57;3.30;;;;;;;18.53;100.00;100929.63;5047761;28;20513;-57
2023/10/03 06:44:36;;;;;;;11.45;2.55;;;;;;;18.39;100.00;100942.06;5046208;28;20069;-57
2023/10/03 06:47:04;;;;;;;6.88;2.63;;;;;;;18.32;100.00;100935.44;5047277;28;20245;-57
2023/10/03 06:49:29;;;;;;;9.48;3.03;;;;;;;18.25;100.00;100935.00;5047355;28;20021;-56
2023/10/03 06:51:57;;;;;;;11.70;3.22;;;;;;;18.28;100.00;100947.25;5047447;28;20046;-57
2023/10/03 06:54:24;;;;;;;13.77;3.30;;;;;;;18.36;100.00;100960.94;5047265;28;20029;-56
2023/10/03 06:56:50;;;;;;;18.25;3.20;;;;;;;18.33;100.00;100982.47;5047045;28;20463;-56
2023/10/03 06:59:16;;;;;;;14.27;3.20;;;;;;;18.26;100.00;100976.69;5045523;28;20081;-55
2023/10/03 07:01:41;;;;;;;20.13;3.35;;;;;;;18.26;100.00;100991.84;5047267;28;20029;-54
2023/10/03 07:04:07;;;;;;;11.57;2.83;;;;;;;18.19;100.00;101005.56;5046726;28;20040;-56
2023/10/03 07:06:33;;;;;;;15.18;2.33;;;;;;;18.18;100.00;101013.66;5047303;28;20128;-58
2023/10/03 07:09:00;;;;;;;9.00;2.55;;;;;;;18.02;100.00;101032.41;5046551;28;20109;-58
2023/10/03 07:11:25;;;;;;;11.73;2.42;;;;;;;17.84;100.00;101040.59;5047527;28;20123;-56
2023/10/03 07:13:51;;;;;;;8.57;2.05;;;;;;;17.67;100.00;101037.16;5047262;28;20366;-58
2023/10/03 07:16:16;;;;;;;9.43;2.38;;;;;;;17.60;100.00;101027.81;5047680;28;20478;-56
2023/10/03 07:18:43;;;;;;;11.23;2.33;;;;;;;17.42;100.00;101036.00;5047044;28;20052;-57
2023/10/03 07:21:09;;;;;;;9.98;1.92;;;;;;;17.40;100.00;101037.03;5047317;28;20028;-59
2023/10/03 07:23:35;;;;;;;8.30;1.77;;;;;;;17.41;100.00;101044.94;5046426;28;20029;-57
2023/10/03 07:26:00;;;;;;;9.23;1.80;;;;;;;17.50;100.00;101058.63;5047733;28;20025;-57
2023/10/03 07:28:25;;;;;;;7.32;1.55;;;;;;;17.59;100.00;101058.09;5047047;28;20029;-58
2023/10/03 07:30:51;;;;;;;7.68;2.20;;;;;;;17.54;100.00;101068.16;5046169;28;20510;-57
2023/10/03 07:33:16;;;;;;;6.72;1.60;;;;;;;17.59;100.00;101058.09;5047027;28;20025;-56
2023/10/03 07:35:44;;;;;;;6.93;1.65;;;;;;;17.54;100.00;101081.47;5047166;28;20025;-59
2023/10/03 07:38:11;;;;;;;5.18;1.42;;;;;;;17.48;100.00;101093.34;5045616;28;20124;-59
2023/10/03 07:40:38;;;;;;;9.85;1.80;;;;;;;17.47;100.00;101090.78;5046502;28;20039;-57
2023/10/03 07:43:06;;;;;;;9.75;1.80;;;;;;;17.40;100.00;101077.00;5046821;28;20028;-58
2023/10/03 07:45:31;;;;;;;5.43;1.50;;;;;;;17.31;100.00;101102.38;5046170;28;20029;-58
2023/10/03 07:48:04;;;;;;;9.43;1.80;;;;;;;17.33;100.00;101104.94;5045616;28;20115;-58
2023/10/03 07:50:29;;;;;;;9.85;2.00;;;;;;;17.41;100.00;101113.31;5046515;28;20255;-58
2023/10/03 07:52:57;;;;;;;8.45;2.03;;;;;;;17.40;100.00;101133.75;5028528;28;20156;-59
2023/10/03 07:55:25;;;;;;;8.38;1.80;;;;;;;17.49;100.00;101134.19;5046682;28;20127;-56
2023/10/03 07:57:54;;;;;;;7.03;2.03;;;;;;;17.49;100.00;101150.16;5046585;28;20029;-58
2023/10/03 08:00:26;;;;;;;18.38;2.30;;;;;;;17.61;100.00;101151.25;5044896;28;20029;-58
2023/10/03 08:02:52;;;;;;;10.23;2.25;;;;;;;17.74;100.00;101170.03;5045511;28;20100;-59
2023/10/03 08:05:17;;;;;;;8.05;1.58;;;;;;;17.88;100.00;101158.56;5045547;28;20433;-56
2023/10/03 08:07:47;;;;;;;9.18;1.88;;;;;;;17.83;100.00;101182.81;5045860;28;20041;-59
2023/10/03 08:10:16;;;;;;;5.95;1.30;;;;;;;17.54;100.00;101194.25;5027900;28;20063;-55
2023/10/03 08:12:43;;;;;;;4.30;1.33;;;;;;;17.23;100.00;101205.78;5045993;28;20055;-58
2023/10/03 08:15:17;;;;;;;3.00;0.90;;;;;;;16.93;100.00;101210.03;5046030;28;20091;-59
2023/10/03 08:17:53;;;;;;;3.40;1.10;;;;;;;16.66;100.00;101213.25;5045861;28;20567;-62
2023/10/03 08:20:18;;;;;;;2.70;0.80;;;;;;;16.65;100.00;101207.06;5047387;28;20036;-60
2023/10/03 08:22:50;;;;;;;5.50;0.98;;;;;;;16.62;100.00;101233.00;5044721;28;20032;-60
2023/10/03 08:25:20;;;;;;;3.65;1.10;;;;;;;16.49;100.00;101243.41;5046622;28;20037;-58
2023/10/03 08:27:46;;;;;;;7.60;1.20;;;;;;;16.41;100.00;101265.94;5046008;28;20526;-58
2023/10/03 08:30:30;;;;;;;5.70;0.95;;;;;;;16.47;100.00;101253.28;5046598;28;20025;-58
2023/10/03 08:32:58;;;;;;;4.15;1.17;;;;;;;16.58;100.00;101253.56;5044191;28;20087;-59
2023/10/03 08:35:34;;;;;;;4.55;1.48;;;;;;;16.61;100.00;101257.84;5046719;28;20036;-58
2023/10/03 08:38:04;;;;;;;4.95;1.15;;;;;;;16.67;100.00;101262.84;5045397;28;20507;-56
2023/10/03 08:40:36;;;;;;;7.05;1.27;;;;;;;16.82;100.00;101271.00;5046615;28;20025;-61
2023/10/03 08:43:04;;;;;;;5.97;1.02;;;;;;;16.80;100.00;101279.06;5046417;28;20079;-60
2023/10/03 08:45:34;;;;;;;6.50;1.10;;;;;;;16.88;100.00;101276.81;5027677;28;20032;-59
2023/10/03 08:48:05;;;;;;;1.52;0.68;;;;;;;16.87;100.00;101271.59;5024368;28;20504;-57
2023/10/03 08:50:46;;;;;;;3.47;0.85;;;;;;;16.96;100.00;101263.09;5026251;28;20029;-58
2023/10/03 08:53:12;;;;;;;4.80;1.02;;;;;;;17.16;100.00;101275.34;5027058;28;20083;-58
2023/10/03 08:55:45;;;;;;;10.82;1.45;;;;;;;17.22;100.00;101276.81;5026783;28;20025;-58
2023/10/03 08:58:14;;;;;;;2.72;1.00;;;;;;;17.10;100.00;101291.66;5026384;28;20376;-59
2023/10/03 09:00:41;;;;;;;;;;;;;;;16.93;100.00;101316.50;5043980;28;20513;-58
2023/10/03 09:03:11;;;;;;;7.28;1.10;;;;;;;16.77;100.00;101330.59;5031528;28;19927;-59
2023/10/03 09:05:42;;;;;;;10.18;1.60;;;;;;;16.76;100.00;101342.22;5049257;28;20025;-57
2023/10/03 09:08:12;;;;;;;6.93;1.48;;;;;;;16.77;100.00;101337.75;5032945;28;20463;-58
2023/10/03 09:10:52;;;;;;;6.40;1.33;;;;;;;16.82;100.00;101329.53;5049229;28;20108;-59
2023/10/03 09:13:25;;;;;;;3.05;0.90;;;;;;;16.79;100.00;101328.75;5050031;28;20071;-57
2023/10/03 09:16:00;;;;;;;7.90;1.20;;;;;;;16.92;100.00;101323.63;5049922;28;20048;-58
2023/10/03 09:18:30;;;;;;;3.67;1.25;;;;;;;17.08;100.00;101353.91;5048930;28;20037;-59
2023/10/03 09:20:59;;;;;;;7.10;1.20;;;;;;;17.15;100.00;101353.53;5050003;28;20438;-60
2023/10/03 09:23:24;;;;;;;;;;;;;;;17.03;100.00;101378.09;5032502;28;20055;-58
2023/10/03 09:25:55;;;;;;;2.92;1.10;;;;;;;16.65;100.00;101392.47;5048593;28;19916;-60
2023/10/03 09:28:27;;;;;;;2.83;0.90;;;;;;;16.23;100.00;101391.88;5050154;28;20060;-60
2023/10/03 09:30:55;;;;;;;4.38;0.90;;;;;;;15.86;100.00;101399.81;5049142;28;20079;-57
2023/10/03 09:33:22;;;;;;;7.28;1.42;;;;;;;15.76;100.00;101396.69;5032530;28;20309;-58
2023/10/03 09:36:00;;;;;;;5.22;1.17;;;;;;;15.67;100.00;101392.69;5049132;28;20415;-57
2023/10/03 09:38:38;;;;;;;5.03;1.10;;;;;;;15.64;100.00;101388.38;5048173;28;20028;-59
2023/10/03 09:41:04;;;;;;;5.05;1.17;;;;;;;15.71;100.00;101396.06;5044086;28;20757;-58
2023/10/03 09:43:29;;;;;;;8.10;1.45;;;;;;;15.84;100.00;101402.53;5048228;28;20056;-57
2023/10/03 09:46:00;;;;;;;2.78;1.20;;;;;;;15.91;100.00;101414.59;5048310;28;20617;-58
2023/10/03 09:48:26;;;;;;;5.57;1.65;;;;;;;15.89;100.00;101411.13;5047720;28;20033;-58
2023/10/03 09:50:55;;;;;;;5.50;1.40;;;;;;;15.99;100.00;101426.69;5048045;28;20112;-60
2023/10/03 09:53:29;;;;;;;3.05;1.58;;;;;;;16.12;100.00;101427.81;5068259;28;20029;-56
2023/10/03 09:55:59;;;;;;;5.63;1.27;;;;;;;16.11;100.00;101436.72;5056131;28;20414;-59
2023/10/03 09:58:31;;;;;;;11.52;2.15;;;;;;;16.24;100.00;101431.69;5046345;28;20483;-61
2023/10/03 10:00:57;;;;;;;8.88;1.45;;;;;;;16.23;100.00;101431.75;5031988;28;20048;-58
2023/10/03 10:03:28;;;;;;;7.90;1.67;;;;;;;16.27;100.00;101441.28;5048347;28;20380;-58
2023/10/03 10:06:12;;;;;;;6.20;1.50;;;;;;;16.23;100.00;101434.41;5030983;28;20037;-58
2023/10/03 10:08:41;;;;;;;4.47;1.35;;;;;;;16.21;100.00;101452.22;5047254;28;20476;-60
2023/10/03 10:11:10;;;;;;;4.82;1.50;;;;;;;16.29;100.00;101447.41;5030502;28;20590;-56
2023/10/03 10:13:44;;;;;;;9.35;2.00;;;;;;;16.32;100.00;101447.25;5047501;28;20116;-60
2023/10/03 10:18:44;;;;;;;8.23;1.98;;;;;;;16.29;100.00;101447.41;5048497;28;20041;-55
2023/10/03 10:21:37;;;;;;;8.40;2.00;;;;;;;16.32;100.00;101463.22;5048429;28;20025;-59
2023/10/03 10:24:23;;;;;;;11.93;2.55;;;;;;;16.37;100.00;101460.31;5028064;28;20038;-56
2023/10/03 10:26:49;;;;;;;11.27;2.30;;;;;;;16.30;100.00;101467.75;5028198;28;20021;-55
2023/10/03 10:29:19;;;;;;;9.52;2.20;;;;;;;16.26;100.00;101464.34;5028391;28;20229;-59
2023/10/03 10:31:49;;;;;;;11.18;2.33;;;;;;;16.23;100.00;101471.63;5028786;28;20102;-57
2023/10/03 10:34:20;;;;;;;7.75;2.47;;;;;;;16.25;100.00;101475.06;5028637;28;20467;-58
2023/10/03 10:37:03;;;;;;;11.15;2.38;;;;;;;16.20;100.00;101480.63;5045918;28;20461;-59
2023/10/03 10:40:18;;;;;;;9.63;2.80;;;;;;;16.16;100.00;101493.19;5048112;28;20368;-62
2023/10/03 10:43:16;;;;;;;14.05;2.70;;;;;;;16.17;100.00;101476.28;5047831;28;20041;-57
2023/10/03 10:45:44;;;;;;;9.27;2.38;;;;;;;16.20;100.00;101499.25;5014834;28;20242;-55
2023/10/03 10:48:11;;;;;;;10.45;2.30;;;;;;;16.19;100.00;101517.91;5048094;28;20111;-57
2023/10/03 10:51:01;;;;;;;11.52;2.70;;;;;;;15.92;100.00;101521.72;5048613;28;20033;-59
2023/10/03 10:53:43;;;;;;;12.82;2.80;;;;;;;15.79;100.00;101542.69;5040427;28;20017;-57
2023/10/03 10:56:10;;;;;;;9.15;2.78;;;;;;;15.62;100.00;101543.47;5045163;28;20544;-58
2023/10/03 10:59:10;;;;;;;7.07;2.28;;;;;;;15.58;100.00;101555.13;5048198;28;20041;-55
2023/10/03 11:01:39;;;;;;;10.65;2.53;;;;;;;15.58;100.00;101563.97;5014001;28;20041;-55
2023/10/03 11:04:05;;;;;;;9.30;2.60;;;;;;;15.44;100.00;101572.53;5029131;28;20031;-59
2023/10/03 11:06:31;;;;;;;16.15;3.33;;;;;;;15.52;100.00;101569.53;5045971;28;20069;-58
2023/10/03 11:08:56;;;;;;;15.65;3.15;;;;;;;15.58;100.00;101590.53;5045063;28;20033;-60
2023/10/03 11:11:33;;;;;;;11.85;2.85;;;;;;;15.53;100.00;101584.53;5037468;28;20017;-59
2023/10/03 11:13:58;;;;;;;8.77;2.60;;;;;;;15.48;100.00;101590.06;5046613;28;20024;-58
2023/10/03 11:16:26;;;;;;;15.50;2.97;;;;;;;15.44;100.00;101585.78;5047141;28;20534;-57
2023/10/03 11:18:54;;;;;;;12.75;2.83;;;;;;;15.54;100.00;101597.75;5047473;28;20032;-59